Time;durP1;ratioP1;P1;durP2;ratioP2;P2;SDS_P1;SDS_P2;PMS_P1;PMS_P2;Temp;Humidity;BMP_temperature;BMP_pressure;BME280_temperature;BME280_humidity;BME280_pressure;Samples;Min_cycle;Max_cycle;Signal;HPM_P1;HPM_P2
2023/04/17 00:00:05;;;;;;;7.70;2.65;;;;;;;;;;1048220;28;20435;-20
2023/04/17 00:00:36;;;;;;;16.08;2.38;;;;;;;;;;1047990;28;20127;-21
2023/04/17 00:01:07;;;;;;;4.55;2.05;;;;;;;;;;1048151;28;20032;-23
2023/04/17 00:01:37;;;;;;;4.30;1.80;;;;;;;;;;1048093;28;20032;-19
2023/04/17 00:02:10;;;;;;;6.85;2.58;;;;;;;;;;1048418;28;20022;-22
2023/04/17 00:02:41;;;;;;;4.45;1.85;;;;;;;;;;1048075;28;20020;-21
2023/04/17 00:03:12;;;;;;;1.85;1.67;;;;;;;;;;1048257;28;20020;-21
2023/04/17 00:03:43;;;;;;;3.65;2.20;;;;;;;;;;1048206;28;20025;-21
2023/04/17 00:04:14;;;;;;;3.58;1.90;;;;;;;;;;1047295;28;20020;-20
2023/04/17 00:04:45;;;;;;;11.25;2.72;;;;;;;;;;1048158;28;20032;-23
2023/04/17 00:05:15;;;;;;;8.88;2.42;;;;;;;;;;1048212;28;20476;-22
2023/04/17 00:05:47;;;;;;;5.65;1.38;;;;;;;;;;1048208;28;20028;-23
2023/04/17 00:06:18;;;;;;;2.55;2.20;;;;;;;;;;1048148;28;20028;-21
2023/04/17 00:06:48;;;;;;;5.38;2.10;;;;;;;;;;1048092;28;20594;-22
2023/04/17 00:07:21;;;;;;;9.40;4.03;;;;;;;;;;1048205;28;20021;-22
2023/04/17 00:07:53;;;;;;;5.03;2.53;;;;;;;;;;1047146;28;20031;-21
2023/04/17 00:08:23;;;;;;;6.82;2.10;;;;;;;;;;1043650;28;20117;-23
2023/04/17 00:08:54;;;;;;;4.20;2.67;;;;;;;;;;1043771;28;20028;-23
2023/04/17 00:09:25;;;;;;;5.60;1.25;;;;;;;;;;1043799;28;20029;-22
2023/04/17 00:09:55;;;;;;;6.32;2.22;;;;;;;;;;1043863;28;20021;-21
2023/04/17 00:10:26;;;;;;;3.90;2.15;;;;;;;;;;1048109;28;20024;-23
2023/04/17 00:10:56;;;;;;;4.05;1.15;;;;;;;;;;1048141;28;20028;-21
2023/04/17 00:11:27;;;;;;;3.42;2.00;;;;;;;;;;1048100;28;20028;-23
2023/04/17 00:11:57;;;;;;;2.85;1.63;;;;;;;;;;1047781;28;20503;-21
2023/04/17 00:12:28;;;;;;;4.57;3.40;;;;;;;;;;1048292;28;20530;-23
2023/04/17 00:12:58;;;;;;;8.05;3.03;;;;;;;;;;1047184;28;20020;-22
2023/04/17 00:13:28;;;;;;;5.93;2.75;;;;;;;;;;1048157;28;20540;-22
2023/04/17 00:13:59;;;;;;;8.35;2.83;;;;;;;;;;1048231;28;20107;-21
2023/04/17 00:14:29;;;;;;;2.55;2.35;;;;;;;;;;1048223;28;20023;-22
2023/04/17 00:15:00;;;;;;;3.85;2.75;;;;;;;;;;1043632;28;20032;-21
2023/04/17 00:15:30;;;;;;;29.40;2.85;;;;;;;;;;1043807;28;20017;-22
2023/04/17 00:16:01;;;;;;;2.33;1.50;;;;;;;;;;1043986;28;20115;-23
2023/04/17 00:16:31;;;;;;;5.55;2.88;;;;;;;;;;1043770;28;20052;-21
2023/04/17 00:17:02;;;;;;;4.20;1.90;;;;;;;;;;1048336;28;20028;-21
2023/04/17 00:17:32;;;;;;;2.53;2.17;;;;;;;;;;1047969;28;20483;-22
2023/04/17 00:18:03;;;;;;;4.38;2.38;;;;;;;;;;1048209;28;20028;-19
2023/04/17 00:18:33;;;;;;;4.78;1.60;;;;;;;;;;1048224;28;20034;-23
2023/04/17 00:19:04;;;;;;;2.03;1.38;;;;;;;;;;1048175;28;20036;-20
2023/04/17 00:19:34;;;;;;;16.00;3.40;;;;;;;;;;1047942;28;20032;-21
2023/04/17 00:20:08;;;;;;;9.57;2.42;;;;;;;;;;1048269;28;20462;-22
2023/04/17 00:20:39;;;;;;;7.28;1.90;;;;;;;;;;1047122;28;20021;-21
2023/04/17 00:21:09;;;;;;;5.10;3.30;;;;;;;;;;1048165;28;20115;-23
2023/04/17 00:21:40;;;;;;;2.60;1.85;;;;;;;;;;1048020;28;20073;-20
2023/04/17 00:22:10;;;;;;;6.95;3.13;;;;;;;;;;1048390;28;20464;-22
2023/04/17 00:22:41;;;;;;;7.60;2.05;;;;;;;;;;1047959;28;20021;-23
2023/04/17 00:23:11;;;;;;;7.55;3.10;;;;;;;;;;1048113;28;20158;-23
2023/04/17 00:23:42;;;;;;;5.65;2.33;;;;;;;;;;1048116;28;20432;-22
2023/04/17 00:24:13;;;;;;;5.65;2.95;;;;;;;;;;1048308;28;20032;-23
2023/04/17 00:24:43;;;;;;;4.70;2.08;;;;;;;;;;1048073;28;20110;-22
2023/04/17 00:25:14;;;;;;;8.93;2.90;;;;;;;;;;1048186;28;20441;-20
2023/04/17 00:25:44;;;;;;;7.57;2.88;;;;;;;;;;1048050;28;20435;-23
2023/04/17 00:26:15;;;;;;;3.05;1.80;;;;;;;;;;1048099;28;20032;-19
2023/04/17 00:26:45;;;;;;;15.15;4.07;;;;;;;;;;1047701;28;20046;-23
2023/04/17 00:27:16;;;;;;;1.83;1.70;;;;;;;;;;1048665;28;20031;-23
2023/04/17 00:27:46;;;;;;;3.65;2.47;;;;;;;;;;1048087;28;20073;-23
2023/04/17 00:28:17;;;;;;;4.05;1.85;;;;;;;;;;1048178;28;20024;-23
2023/04/17 00:28:49;;;;;;;3.53;1.58;;;;;;;;;;1047003;28;20476;-20
2023/04/17 00:29:19;;;;;;;16.98;3.75;;;;;;;;;;1047995;28;20412;-19
2023/04/17 00:29:50;;;;;;;1.95;1.58;;;;;;;;;;1048047;28;20029;-20
2023/04/17 00:30:20;;;;;;;11.55;2.92;;;;;;;;;;1048235;28;20024;-23
2023/04/17 00:30:51;;;;;;;3.58;1.73;;;;;;;;;;1047943;28;20036;-23
2023/04/17 00:31:21;;;;;;;8.18;2.95;;;;;;;;;;1047935;28;20108;-23
2023/04/17 00:31:52;;;;;;;5.22;1.52;;;;;;;;;;1048151;28;20028;-23
2023/04/17 00:32:22;;;;;;;5.05;1.80;;;;;;;;;;1048166;28;20107;-23
2023/04/17 00:32:53;;;;;;;6.20;1.77;;;;;;;;;;1048094;28;20028;-23
2023/04/17 00:33:23;;;;;;;6.22;2.33;;;;;;;;;;1048076;28;20575;-21
2023/04/17 00:33:54;;;;;;;20.27;4.72;;;;;;;;;;1043499;28;20024;-20
2023/04/17 00:34:24;;;;;;;21.25;3.47;;;;;;;;;;1043684;28;20031;-22
2023/04/17 00:34:55;;;;;;;5.80;3.35;;;;;;;;;;1043701;28;20017;-23
2023/04/17 00:35:25;;;;;;;2.45;1.83;;;;;;;;;;1043546;28;20115;-23
2023/04/17 00:35:56;;;;;;;4.13;1.58;;;;;;;;;;1048037;28;20364;-23
2023/04/17 00:36:26;;;;;;;3.22;1.98;;;;;;;;;;1047046;28;20058;-23
2023/04/17 00:36:58;;;;;;;2.35;1.08;;;;;;;;;;1048005;28;20028;-21
2023/04/17 00:37:28;;;;;;;2.90;1.48;;;;;;;;;;1047954;28;20028;-22
2023/04/17 00:37:59;;;;;;;2.60;2.05;;;;;;;;;;1047439;28;20044;-23
2023/04/17 00:38:29;;;;;;;5.30;2.30;;;;;;;;;;1048078;28;20028;-23
2023/04/17 00:39:00;;;;;;;6.40;2.75;;;;;;;;;;1048024;28;20106;-20
2023/04/17 00:39:30;;;;;;;3.20;1.40;;;;;;;;;;1047060;28;20027;-21
2023/04/17 00:40:01;;;;;;;3.90;2.38;;;;;;;;;;1048071;28;20495;-23
2023/04/17 00:40:32;;;;;;;8.30;2.97;;;;;;;;;;1047856;28;20028;-20
2023/04/17 00:41:02;;;;;;;20.30;2.90;;;;;;;;;;1048189;28;20099;-23
2023/04/17 00:41:33;;;;;;;6.60;3.25;;;;;;;;;;1047846;28;20491;-23
2023/04/17 00:42:03;;;;;;;15.43;3.47;;;;;;;;;;1047076;28;20020;-19
2023/04/17 00:42:34;;;;;;;10.88;3.30;;;;;;;;;;1047648;28;20035;-23
2023/04/17 00:43:05;;;;;;;3.00;1.92;;;;;;;;;;1048053;28;20036;-23
2023/04/17 00:43:36;;;;;;;7.55;1.63;;;;;;;;;;1048002;28;20047;-23
2023/04/17 00:44:06;;;;;;;5.32;2.60;;;;;;;;;;1048330;28;20513;-23
2023/04/17 00:44:37;;;;;;;5.70;1.60;;;;;;;;;;1047818;28;20498;-22
2023/04/17 00:45:09;;;;;;;8.43;2.67;;;;;;;;;;1048147;28;20074;-23
2023/04/17 00:45:41;;;;;;;5.97;2.90;;;;;;;;;;1047969;28;20541;-22
2023/04/17 00:46:11;;;;;;;13.50;2.85;;;;;;;;;;1045977;28;20036;-21
2023/04/17 00:46:42;;;;;;;21.98;2.13;;;;;;;;;;1047583;28;20063;-19
2023/04/17 00:47:13;;;;;;;13.38;2.35;;;;;;;;;;1047943;28;20119;-22
2023/04/17 00:47:43;;;;;;;9.10;3.22;;;;;;;;;;1047608;28;20028;-23
2023/04/17 00:48:14;;;;;;;3.17;1.73;;;;;;;;;;1047724;28;20048;-23
2023/04/17 00:48:45;;;;;;;5.38;3.42;;;;;;;;;;1047746;28;20033;-22
2023/04/17 00:49:15;;;;;;;3.03;1.77;;;;;;;;;;1048126;28;20024;-22
2023/04/17 00:49:46;;;;;;;5.47;1.92;;;;;;;;;;1047197;28;20529;-23
2023/04/17 00:50:16;;;;;;;5.00;2.33;;;;;;;;;;1047539;28;20016;-21
2023/04/17 00:50:47;;;;;;;11.00;3.03;;;;;;;;;;1047404;28;20081;-19
2023/04/17 00:51:18;;;;;;;3.33;2.10;;;;;;;;;;1047421;28;20077;-21
2023/04/17 00:51:49;;;;;;;3.58;2.40;;;;;;;;;;1047609;28;20118;-24
2023/04/17 00:52:25;;;;;;;5.03;2.70;;;;;;;;;;1047903;28;20020;-23
2023/04/17 00:52:56;;;;;;;2.40;1.67;;;;;;;;;;1043364;28;20056;-22
2023/04/17 00:53:26;;;;;;;5.07;1.45;;;;;;;;;;1043295;28;20059;-22
2023/04/17 00:53:57;;;;;;;17.70;5.45;;;;;;;;;;1043579;28;20035;-23
2023/04/17 00:54:28;;;;;;;8.02;2.85;;;;;;;;;;1043632;28;20056;-22
2023/04/17 00:54:59;;;;;;;1.98;1.40;;;;;;;;;;1047850;28;20395;-21
2023/04/17 00:55:30;;;;;;;11.02;3.15;;;;;;;;;;1046331;28;20021;-23
2023/04/17 00:56:02;;;;;;;7.72;2.38;;;;;;;;;;1047818;28;20058;-22
2023/04/17 00:56:33;;;;;;;2.78;1.73;;;;;;;;;;1047366;28;20376;-21
2023/04/17 00:57:04;;;;;;;16.27;3.05;;;;;;;;;;1045658;28;20075;-19
2023/04/17 00:57:35;;;;;;;2.67;1.95;;;;;;;;;;1045852;28;20069;-22
2023/04/17 00:58:05;;;;;;;2.92;2.55;;;;;;;;;;1047692;28;20029;-23
2023/04/17 00:58:36;;;;;;;6.18;2.58;;;;;;;;;;1047004;28;20533;-24
2023/04/17 00:59:08;;;;;;;9.38;3.38;;;;;;;;;;1047416;28;20431;-22
2023/04/17 00:59:40;;;;;;;7.90;2.65;;;;;;;;;;1046654;28;20036;-21
2023/04/17 01:00:11;;;;;;;9.57;4.97;;;;;;;;;;1047121;28;20492;-23
2023/04/17 01:00:41;;;;;;;3.80;2.90;;;;;;;;;;1045250;28;20016;-21
2023/04/17 01:01:12;;;;;;;8.85;3.53;;;;;;;;;;1047832;28;20118;-22
2023/04/17 01:01:43;;;;;;;7.15;2.58;;;;;;;;;;1043163;28;20039;-21
2023/04/17 01:02:13;;;;;;;9.50;3.53;;;;;;;;;;1043411;28;20052;-22
2023/04/17 01:02:44;;;;;;;6.47;1.95;;;;;;;;;;1043177;28;20413;-23
2023/04/17 01:03:15;;;;;;;5.22;1.77;;;;;;;;;;1043640;28;20060;-20
2023/04/17 01:03:46;;;;;;;12.98;3.03;;;;;;;;;;1047429;28;20047;-23
2023/04/17 01:04:16;;;;;;;6.68;2.75;;;;;;;;;;1047873;28;20035;-22
2023/04/17 01:04:47;;;;;;;15.93;2.50;;;;;;;;;;1047575;28;20414;-22
2023/04/17 01:05:17;;;;;;;8.02;3.55;;;;;;;;;;1047430;28;20024;-23
2023/04/17 01:05:50;;;;;;;3.92;2.22;;;;;;;;;;1047013;28;20021;-21
2023/04/17 01:06:20;;;;;;;3.80;2.45;;;;;;;;;;1046592;28;20025;-21
2023/04/17 01:06:52;;;;;;;25.73;2.53;;;;;;;;;;1047592;28;20404;-20
2023/04/17 01:07:22;;;;;;;8.13;1.83;;;;;;;;;;1046922;28;20028;-23
2023/04/17 01:07:53;;;;;;;10.52;2.47;;;;;;;;;;1047943;28;20047;-22
2023/04/17 01:08:24;;;;;;;6.63;3.03;;;;;;;;;;1047627;28;20023;-21
2023/04/17 01:08:54;;;;;;;4.88;3.10;;;;;;;;;;1047107;28;20016;-23
2023/04/17 01:09:25;;;;;;;6.55;2.50;;;;;;;;;;1047648;28;20032;-21
2023/04/17 01:09:56;;;;;;;5.65;2.30;;;;;;;;;;1045345;28;20036;-23
2023/04/17 01:10:26;;;;;;;2.40;1.63;;;;;;;;;;1047054;28;20099;-21
2023/04/17 01:10:57;;;;;;;13.50;3.17;;;;;;;;;;1047767;28;20115;-21
2023/04/17 01:11:28;;;;;;;9.77;3.05;;;;;;;;;;1047682;28;20419;-23
2023/04/17 01:12:17;;;;;;;4.55;3.28;;;;;;;;;;1045643;28;20130;-23
2023/04/17 01:13:03;;;;;;;5.32;3.72;;;;;;;;;;1046376;28;20017;-21
2023/04/17 01:13:42;;;;;;;13.82;3.33;;;;;;;;;;1042376;28;20028;-22
2023/04/17 01:14:13;;;;;;;4.85;2.58;;;;;;;;;;1043226;28;20440;-23
2023/04/17 01:14:44;;;;;;;12.45;3.97;;;;;;;;;;1042977;28;20143;-21
2023/04/17 01:15:15;;;;;;;5.70;2.95;;;;;;;;;;1044876;28;20451;-21
2023/04/17 01:15:45;;;;;;;3.88;3.30;;;;;;;;;;1046984;28;20514;-22
2023/04/17 01:16:16;;;;;;;6.85;3.28;;;;;;;;;;1046800;28;20522;-23
2023/04/17 01:16:47;;;;;;;9.98;3.97;;;;;;;;;;1047614;28;20027;-21
2023/04/17 01:17:18;;;;;;;12.65;3.35;;;;;;;;;;1046887;28;20569;-23
2023/04/17 01:17:48;;;;;;;12.05;2.65;;;;;;;;;;1047419;28;21212;-21
2023/04/17 01:18:19;;;;;;;2.63;2.15;;;;;;;;;;1045767;28;20115;-21
2023/04/17 01:18:50;;;;;;;6.93;4.68;;;;;;;;;;1047630;28;20020;-22
2023/04/17 01:19:20;;;;;;;7.68;3.63;;;;;;;;;;1047665;28;20067;-20
2023/04/17 01:19:51;;;;;;;10.77;4.07;;;;;;;;;;1047718;28;20111;-23
2023/04/17 01:20:22;;;;;;;13.75;3.45;;;;;;;;;;1046189;28;20480;-22
2023/04/17 01:20:52;;;;;;;9.20;3.38;;;;;;;;;;1047618;28;20032;-23
2023/04/17 01:21:22;;;;;;;10.85;4.15;;;;;;;;;;1047552;28;20025;-24
2023/04/17 01:21:53;;;;;;;6.10;3.40;;;;;;;;;;1047821;28;20046;-23
2023/04/17 01:22:24;;;;;;;7.55;3.45;;;;;;;;;;1045172;28;21080;-23
2023/04/17 01:22:55;;;;;;;7.50;3.30;;;;;;;;;;1046826;28;20504;-22
2023/04/17 01:23:26;;;;;;;12.80;4.43;;;;;;;;;;1045422;28;20059;-21
2023/04/17 01:24:00;;;;;;;2.95;2.13;;;;;;;;;;1046117;28;20033;-23
2023/04/17 01:24:31;;;;;;;7.60;2.70;;;;;;;;;;1042105;28;20024;-22
2023/04/17 01:25:01;;;;;;;13.27;3.28;;;;;;;;;;1043087;28;20446;-23
2023/04/17 01:25:32;;;;;;;14.63;3.30;;;;;;;;;;1045691;28;20092;-21
2023/04/17 01:26:02;;;;;;;7.53;2.78;;;;;;;;;;1044087;28;20024;-23
2023/04/17 01:26:33;;;;;;;4.90;2.13;;;;;;;;;;1045581;28;20143;-23
2023/04/17 01:27:05;;;;;;;15.10;3.17;;;;;;;;;;1045892;28;20547;-21
2023/04/17 01:27:36;;;;;;;3.85;2.13;;;;;;;;;;1045517;28;20521;-23
2023/04/17 01:28:07;;;;;;;7.97;2.42;;;;;;;;;;1045171;28;20032;-23
2023/04/17 01:28:38;;;;;;;5.72;2.47;;;;;;;;;;1044079;28;20036;-23
2023/04/17 01:29:08;;;;;;;15.07;3.33;;;;;;;;;;1044744;28;20056;-22
2023/04/17 01:29:39;;;;;;;8.73;3.08;;;;;;;;;;1044859;28;20430;-21
2023/04/17 01:30:10;;;;;;;7.68;2.55;;;;;;;;;;1043782;28;20585;-23
2023/04/17 01:30:41;;;;;;;15.25;3.78;;;;;;;;;;1042694;28;20106;-22
2023/04/17 01:31:15;;;;;;;6.70;3.42;;;;;;;;;;1044338;28;20020;-21
2023/04/17 01:31:45;;;;;;;5.80;3.88;;;;;;;;;;1042977;28;20032;-22
2023/04/17 01:32:16;;;;;;;16.50;3.63;;;;;;;;;;1042518;28;20479;-23
2023/04/17 01:32:46;;;;;;;5.28;3.03;;;;;;;;;;1044478;28;20036;-23
2023/04/17 01:33:17;;;;;;;11.35;3.97;;;;;;;;;;1040412;28;20049;-20
2023/04/17 01:33:47;;;;;;;3.78;2.20;;;;;;;;;;1038539;28;20025;-20
2023/04/17 01:34:18;;;;;;;12.40;2.95;;;;;;;;;;1038457;28;20576;-23
2023/04/17 01:34:48;;;;;;;13.57;3.50;;;;;;;;;;1039667;28;20079;-23
2023/04/17 01:35:19;;;;;;;4.30;1.80;;;;;;;;;;1044065;28;20036;-21
2023/04/17 01:35:49;;;;;;;1.85;1.55;;;;;;;;;;1043489;28;20071;-19
2023/04/17 01:36:20;;;;;;;4.47;1.55;;;;;;;;;;1040335;28;20029;-23
2023/04/17 01:36:51;;;;;;;8.27;3.22;;;;;;;;;;1042479;28;20125;-21
2023/04/17 01:37:22;;;;;;;12.93;5.25;;;;;;;;;;1042987;28;20025;-22
2023/04/17 01:37:52;;;;;;;5.32;3.75;;;;;;;;;;1043175;28;20025;-23
2023/04/17 01:38:23;;;;;;;4.85;2.65;;;;;;;;;;1045750;28;20043;-23
2023/04/17 01:38:54;;;;;;;8.82;3.83;;;;;;;;;;1046377;28;20464;-23
2023/04/17 01:39:25;;;;;;;4.80;2.75;;;;;;;;;;1040974;28;20028;-24
2023/04/17 01:39:57;;;;;;;12.15;3.35;;;;;;;;;;1040169;28;20029;-20
2023/04/17 01:40:27;;;;;;;10.90;3.83;;;;;;;;;;1040677;28;20060;-22
2023/04/17 01:40:58;;;;;;;6.70;3.25;;;;;;;;;;1040467;28;20417;-23
2023/04/17 01:41:28;;;;;;;8.23;4.28;;;;;;;;;;1045407;28;20050;-23
2023/04/17 01:41:59;;;;;;;11.45;2.80;;;;;;;;;;1045072;28;20029;-24
2023/04/17 01:42:29;;;;;;;7.32;4.00;;;;;;;;;;1046008;28;20155;-20
2023/04/17 01:43:00;;;;;;;8.55;3.15;;;;;;;;;;1045044;28;20055;-23
2023/04/17 01:43:31;;;;;;;12.48;3.15;;;;;;;;;;1045051;28;20470;-22
2023/04/17 01:44:01;;;;;;;11.52;3.47;;;;;;;;;;1044821;28;20060;-24
2023/04/17 01:44:32;;;;;;;7.47;3.80;;;;;;;;;;1046662;28;20033;-22
2023/04/17 01:45:04;;;;;;;2.22;1.27;;;;;;;;;;1042255;28;20552;-21
2023/04/17 01:45:35;;;;;;;5.25;2.20;;;;;;;;;;1038584;28;21376;-22
2023/04/17 01:46:06;;;;;;;5.97;2.53;;;;;;;;;;1039897;28;20040;-22
2023/04/17 01:46:37;;;;;;;5.28;2.85;;;;;;;;;;1041155;28;20032;-24
2023/04/17 01:47:08;;;;;;;5.88;1.85;;;;;;;;;;1042635;28;20036;-24
2023/04/17 01:47:39;;;;;;;8.75;1.83;;;;;;;;;;1046052;28;20076;-23
2023/04/17 01:48:09;;;;;;;3.15;2.03;;;;;;;;;;1046958;28;20024;-24
2023/04/17 01:48:40;;;;;;;6.40;2.35;;;;;;;;;;1045477;28;20495;-23
2023/04/17 01:49:11;;;;;;;8.50;3.30;;;;;;;;;;1046349;28;20029;-21
2023/04/17 01:49:41;;;;;;;9.85;3.22;;;;;;;;;;1045377;28;20032;-21
2023/04/17 01:50:12;;;;;;;5.25;4.07;;;;;;;;;;1041420;28;20037;-23
2023/04/17 01:50:43;;;;;;;5.55;2.78;;;;;;;;;;1041468;28;20025;-21
2023/04/17 01:51:14;;;;;;;6.05;2.33;;;;;;;;;;1042399;28;20054;-23
2023/04/17 01:51:45;;;;;;;3.80;2.20;;;;;;;;;;1040776;28;20032;-22
2023/04/17 01:52:15;;;;;;;9.30;2.40;;;;;;;;;;1038223;28;20085;-22
2023/04/17 01:52:47;;;;;;;3.17;1.60;;;;;;;;;;1037766;28;20030;-19
2023/04/17 01:53:17;;;;;;;4.38;2.20;;;;;;;;;;1038674;28;20025;-23
2023/04/17 01:53:48;;;;;;;5.68;1.63;;;;;;;;;;1040430;28;20021;-20
2023/04/17 01:54:20;;;;;;;2.10;1.45;;;;;;;;;;1045233;28;20531;-20
2023/04/17 01:54:52;;;;;;;7.47;2.83;;;;;;;;;;1043119;28;20113;-22
2023/04/17 01:55:23;;;;;;;2.30;1.35;;;;;;;;;;1043227;28;20032;-21
2023/04/17 01:55:53;;;;;;;5.25;2.20;;;;;;;;;;1046437;28;20039;-23
2023/04/17 01:56:24;;;;;;;9.43;2.83;;;;;;;;;;1047339;28;20050;-24
2023/04/17 01:56:56;;;;;;;3.83;2.28;;;;;;;;;;1045414;28;20032;-24
2023/04/17 01:57:27;;;;;;;2.47;1.23;;;;;;;;;;1045394;28;20373;-23
2023/04/17 01:57:58;;;;;;;16.52;3.40;;;;;;;;;;1046092;28;20052;-24
2023/04/17 01:58:29;;;;;;;2.08;1.67;;;;;;;;;;1046747;28;20562;-22
2023/04/17 01:59:00;;;;;;;12.73;1.80;;;;;;;;;;1046426;28;20028;-24
2023/04/17 01:59:30;;;;;;;6.63;1.30;;;;;;;;;;1045488;28;20028;-21
2023/04/17 02:00:06;;;;;;;5.97;0.45;;;;;;;;;;1043939;28;20028;-22
2023/04/17 02:00:36;;;;;;;2.28;1.90;;;;;;;;;;1045109;28;20075;-21
2023/04/17 02:01:06;;;;;;;10.80;1.52;;;;;;;;;;1045219;28;20034;-21
2023/04/17 02:01:37;;;;;;;0.52;0.43;;;;;;;;;;1044670;28;20048;-23
2023/04/17 02:02:07;;;;;;;0.63;0.60;;;;;;;;;;1044266;28;20035;-20
2023/04/17 02:02:38;;;;;;;2.25;0.95;;;;;;;;;;1045581;28;20032;-23
2023/04/17 02:03:08;;;;;;;0.20;0.20;;;;;;;;;;1043927;28;20115;-20
2023/04/17 02:03:39;;;;;;;6.35;1.58;;;;;;;;;;1045451;28;20024;-23
2023/04/17 02:04:09;;;;;;;21.48;1.77;;;;;;;;;;1045549;28;20400;-21
2023/04/17 02:04:40;;;;;;;5.47;1.05;;;;;;;;;;1043276;28;20025;-22
2023/04/17 02:05:10;;;;;;;4.43;1.13;;;;;;;;;;1044699;28;20071;-24
2023/04/17 02:05:46;;;;;;;0.45;0.30;;;;;;;;;;1045571;28;20097;-23
2023/04/17 02:06:17;;;;;;;3.30;1.05;;;;;;;;;;1039034;28;20721;-20
2023/04/17 02:06:48;;;;;;;0.93;0.80;;;;;;;;;;1040969;28;20036;-23
2023/04/17 02:07:18;;;;;;;12.35;1.33;;;;;;;;;;1040476;28;20416;-22
2023/04/17 02:07:50;;;;;;;3.65;1.10;;;;;;;;;;1041991;28;20119;-23
2023/04/17 02:08:21;;;;;;;3.58;1.83;;;;;;;;;;1044306;28;20599;-23
2023/04/17 02:08:51;;;;;;;2.95;1.40;;;;;;;;;;1045915;28;20025;-24
2023/04/17 02:09:22;;;;;;;4.03;1.77;;;;;;;;;;1043938;28;20032;-22
2023/04/17 02:09:52;;;;;;;2.42;1.15;;;;;;;;;;1045830;28;20086;-22
2023/04/17 02:10:23;;;;;;;2.72;1.75;;;;;;;;;;1043595;28;20532;-22
2023/04/17 02:10:53;;;;;;;1.38;0.77;;;;;;;;;;1041229;28;20028;-21
2023/04/17 02:11:25;;;;;;;0.35;0.35;;;;;;;;;;1038960;28;20092;-22
2023/04/17 02:11:55;;;;;;;0.52;0.52;;;;;;;;;;1041259;28;20029;-22
2023/04/17 02:12:26;;;;;;;1.15;0.75;;;;;;;;;;1042103;28;20037;-19
2023/04/17 02:12:56;;;;;;;5.55;2.60;;;;;;;;;;1048002;28;20757;-23
2023/04/17 02:13:27;;;;;;;6.13;0.68;;;;;;;;;;1041614;28;20132;-24
2023/04/17 02:13:57;;;;;;;2.70;1.20;;;;;;;;;;1042829;28;20115;-21
2023/04/17 02:14:29;;;;;;;12.63;1.50;;;;;;;;;;1041687;28;20489;-23
2023/04/17 02:15:00;;;;;;;1.17;0.50;;;;;;;;;;1043356;28;20025;-22
2023/04/17 02:15:31;;;;;;;1.15;0.65;;;;;;;;;;1045741;28;20032;-23
2023/04/17 02:16:01;;;;;;;3.47;1.50;;;;;;;;;;1045318;28;20051;-21
2023/04/17 02:16:32;;;;;;;3.88;1.10;;;;;;;;;;1045769;28;20577;-22
2023/04/17 02:17:04;;;;;;;8.73;1.67;;;;;;;;;;1045568;28;20121;-22
2023/04/17 02:17:36;;;;;;;0.95;0.95;;;;;;;;;;1045189;28;20028;-24
2023/04/17 02:18:07;;;;;;;2.47;1.70;;;;;;;;;;1044113;28;20033;-21
2023/04/17 02:18:38;;;;;;;8.13;1.25;;;;;;;;;;1046552;28;20028;-24
2023/04/17 02:19:08;;;;;;;0.85;0.85;;;;;;;;;;1045317;28;20387;-22
2023/04/17 02:19:39;;;;;;;5.57;1.67;;;;;;;;;;1046805;28;20051;-22
2023/04/17 02:20:10;;;;;;;2.80;0.95;;;;;;;;;;1045326;28;20031;-24
2023/04/17 02:20:41;;;;;;;9.90;1.70;;;;;;;;;;1040936;28;20029;-25
2023/04/17 02:21:11;;;;;;;9.38;1.88;;;;;;;;;;1039881;28;20028;-23
2023/04/17 02:21:42;;;;;;;1.48;0.95;;;;;;;;;;1037579;28;20119;-22
2023/04/17 02:22:12;;;;;;;8.43;1.73;;;;;;;;;;1034461;28;20561;-24
2023/04/17 02:22:43;;;;;;;7.63;1.75;;;;;;;;;;1038060;28;20586;-23
2023/04/17 02:23:14;;;;;;;0.65;0.40;;;;;;;;;;1038278;28;20037;-23
2023/04/17 02:23:44;;;;;;;4.03;1.88;;;;;;;;;;1039969;28;20112;-23
2023/04/17 02:24:15;;;;;;;18.75;1.13;;;;;;;;;;1045741;28;20028;-21
2023/04/17 02:24:45;;;;;;;0.10;0.10;;;;;;;;;;1045582;28;20035;-23
2023/04/17 02:25:16;;;;;;;2.03;0.63;;;;;;;;;;1044648;28;20397;-22
2023/04/17 02:25:46;;;;;;;0.70;0.70;;;;;;;;;;1044802;28;20021;-24
2023/04/17 02:26:17;;;;;;;1.38;0.82;;;;;;;;;;1045135;28;20086;-21
2023/04/17 02:26:48;;;;;;;1.05;0.68;;;;;;;;;;1044833;28;20495;-24
2023/04/17 02:27:19;;;;;;;0.63;0.60;;;;;;;;;;1044864;28;20028;-23
2023/04/17 02:27:49;;;;;;;11.13;1.40;;;;;;;;;;1047061;28;20549;-24
2023/04/17 02:28:20;;;;;;;3.83;1.33;;;;;;;;;;1045565;28;20926;-22
2023/04/17 02:28:50;;;;;;;1.98;0.93;;;;;;;;;;1046624;28;20427;-22
2023/04/17 02:29:21;;;;;;;1.00;0.88;;;;;;;;;;1042623;28;20016;-24
2023/04/17 02:29:52;;;;;;;1.50;1.23;;;;;;;;;;1045148;28;20032;-22
2023/04/17 02:30:23;;;;;;;1.95;0.73;;;;;;;;;;1044359;28;20028;-20
2023/04/17 02:30:53;;;;;;;7.00;1.70;;;;;;;;;;1044956;28;20127;-20
2023/04/17 02:31:24;;;;;;;2.10;1.95;;;;;;;;;;1045403;28;20036;-22
2023/04/17 02:31:54;;;;;;;2.35;1.75;;;;;;;;;;1047043;28;20029;-24
2023/04/17 02:32:25;;;;;;;3.17;1.90;;;;;;;;;;1045516;28;20498;-20
2023/04/17 02:32:56;;;;;;;8.70;2.75;;;;;;;;;;1047300;28;20028;-22
2023/04/17 02:33:27;;;;;;;0.20;0.20;;;;;;;;;;1045167;28;20016;-24
2023/04/17 02:33:57;;;;;;;5.82;1.35;;;;;;;;;;1047121;28;20391;-24
2023/04/17 02:34:28;;;;;;;5.38;2.15;;;;;;;;;;1042279;28;20166;-23
2023/04/17 02:34:59;;;;;;;1.77;0.80;;;;;;;;;;1043559;28;20090;-23
2023/04/17 02:35:30;;;;;;;1.30;0.82;;;;;;;;;;1044544;28;20454;-22
2023/04/17 02:36:01;;;;;;;6.00;2.80;;;;;;;;;;1043234;28;20024;-23
2023/04/17 02:36:32;;;;;;;6.82;1.17;;;;;;;;;;1041565;28;20021;-23
2023/04/17 02:37:03;;;;;;;1.20;0.45;;;;;;;;;;1040555;28;20056;-24
2023/04/17 02:37:34;;;;;;;1.85;1.15;;;;;;;;;;1036459;28;20515;-21
2023/04/17 02:38:04;;;;;;;1.48;1.38;;;;;;;;;;1039133;28;20120;-23
2023/04/17 02:38:36;;;;;;;0.63;0.57;;;;;;;;;;1039343;28;20358;-21
2023/04/17 02:39:07;;;;;;;1.20;1.00;;;;;;;;;;1039465;28;20034;-22
2023/04/17 02:39:37;;;;;;;2.00;0.70;;;;;;;;;;1045509;28;20390;-21
2023/04/17 02:40:09;;;;;;;13.50;1.15;;;;;;;;;;1046552;28;20039;-22
2023/04/17 02:40:39;;;;;;;1.75;1.65;;;;;;;;;;1044197;28;20032;-24
2023/04/17 02:41:11;;;;;;;14.20;1.10;;;;;;;;;;1040015;28;20037;-23
2023/04/17 02:41:42;;;;;;;1.02;1.02;;;;;;;;;;1039718;28;20040;-22
2023/04/17 02:42:13;;;;;;;0.93;0.63;;;;;;;;;;1041262;28;20024;-22
2023/04/17 02:42:45;;;;;;;9.18;1.42;;;;;;;;;;1040428;28;20187;-24
2023/04/17 02:43:16;;;;;;;3.97;0.77;;;;;;;;;;1038475;28;20026;-23
2023/04/17 02:43:51;;;;;;;0.82;0.82;;;;;;;;;;1041491;28;20021;-24
2023/04/17 02:44:34;;;;;;;1.33;1.23;;;;;;;;;;1036076;28;20033;-22
2023/04/17 02:45:07;;;;;;;0.82;0.82;;;;;;;;;;1030114;28;20034;-21
2023/04/17 02:45:38;;;;;;;0.95;0.85;;;;;;;;;;1036908;28;20029;-23
2023/04/17 02:46:10;;;;;;;1.45;1.08;;;;;;;;;;1038319;28;20041;-23
2023/04/17 02:46:41;;;;;;;3.72;1.30;;;;;;;;;;1039297;28;20088;-24
2023/04/17 02:47:12;;;;;;;3.15;2.63;;;;;;;;;;1042415;28;20123;-22
2023/04/17 02:47:44;;;;;;;3.38;1.35;;;;;;;;;;1041831;28;20921;-24
2023/04/17 02:48:16;;;;;;;5.65;2.92;;;;;;;;;;1039480;28;21035;-25
2023/04/17 02:48:47;;;;;;;3.60;1.48;;;;;;;;;;1037058;28;20037;-23
2023/04/17 02:49:17;;;;;;;1.63;1.17;;;;;;;;;;1034597;28;20029;-24
2023/04/17 02:49:48;;;;;;;4.28;1.50;;;;;;;;;;1037526;28;20492;-21
2023/04/17 02:50:19;;;;;;;3.70;2.70;;;;;;;;;;1034844;28;20515;-21
2023/04/17 02:50:49;;;;;;;17.63;1.10;;;;;;;;;;1038691;28;20025;-22
2023/04/17 02:51:22;;;;;;;2.45;0.93;;;;;;;;;;1042011;28;21451;-20
2023/04/17 02:51:52;;;;;;;1.25;0.75;;;;;;;;;;1040580;28;20029;-20
2023/04/17 02:52:27;;;;;;;1.52;1.42;;;;;;;;;;1039653;28;20052;-24
2023/04/17 02:52:59;;;;;;;1.50;1.02;;;;;;;;;;1036832;28;20040;-24
2023/04/17 02:53:31;;;;;;;2.42;1.10;;;;;;;;;;1033156;28;20044;-21
2023/04/17 02:54:01;;;;;;;0.75;0.75;;;;;;;;;;1032470;28;20088;-22
2023/04/17 02:54:32;;;;;;;1.00;0.57;;;;;;;;;;1035406;28;20463;-21
2023/04/17 02:55:03;;;;;;;4.88;1.10;;;;;;;;;;1039935;28;20029;-21
2023/04/17 02:55:34;;;;;;;1.85;1.38;;;;;;;;;;1044532;28;20507;-23
2023/04/17 02:56:06;;;;;;;1.88;0.73;;;;;;;;;;1044066;28;20039;-24
2023/04/17 02:56:40;;;;;;;9.98;2.05;;;;;;;;;;1039919;28;20036;-24
2023/04/17 02:57:12;;;;;;;16.73;1.27;;;;;;;;;;1037267;28;20021;-22
2023/04/17 02:57:43;;;;;;;3.72;1.42;;;;;;;;;;1036934;28;20030;-20
2023/04/17 02:58:14;;;;;;;10.32;2.10;;;;;;;;;;1036750;28;20033;-21
2023/04/17 02:58:45;;;;;;;1.60;0.90;;;;;;;;;;1037028;28;20123;-24
2023/04/17 02:59:17;;;;;;;5.43;1.13;;;;;;;;;;1042587;28;20039;-23
2023/04/17 02:59:51;;;;;;;11.20;1.48;;;;;;;;;;1045033;28;20051;-22
2023/04/17 03:00:28;;;;;;;2.95;0.75;;;;;;;;;;1038403;28;20021;-23
2023/04/17 03:01:03;;;;;;;2.22;0.93;;;;;;;;;;1032281;28;20033;-23
2023/04/17 03:01:36;;;;;;;0.80;0.65;;;;;;;;;;1034471;28;20037;-23
2023/04/17 03:02:07;;;;;;;2.72;0.88;;;;;;;;;;1035036;28;20037;-22
2023/04/17 03:02:38;;;;;;;1.35;0.85;;;;;;;;;;1039603;28;20891;-22
2023/04/17 03:03:09;;;;;;;1.23;1.10;;;;;;;;;;1039490;28;20025;-22
2023/04/17 03:03:39;;;;;;;3.40;0.65;;;;;;;;;;1039814;28;20020;-24
2023/04/17 03:04:10;;;;;;;1.88;0.55;;;;;;;;;;1041765;28;20126;-21
2023/04/17 03:04:44;;;;;;;1.33;0.85;;;;;;;;;;1041361;28;20111;-24
2023/04/17 03:05:22;;;;;;;1.23;1.13;;;;;;;;;;1038917;28;20599;-24
2023/04/17 03:05:53;;;;;;;0.55;0.35;;;;;;;;;;1034961;28;20048;-22